Time;durP1;ratioP1;P1;durP2;ratioP2;P2;SDS_P1;SDS_P2;PMS_P1;PMS_P2;Temp;Humidity;BMP_temperature;BMP_pressure;BME280_temperature;BME280_humidity;BME280_pressure;Samples;Min_cycle;Max_cycle;Signal;HPM_P1;HPM_P2
2021/03/05 00:00:40;;;;;;;5.45;2.15;;;25.10;66.30;;;;;;5073187;28;20029;-60
2021/03/05 00:03:08;;;;;;;10.70;2.42;;;25.00;66.30;;;;;;5074620;28;20035;-59
2021/03/05 00:05:38;;;;;;;3.50;1.48;;;25.00;66.40;;;;;;5074650;28;20207;-52
2021/03/05 00:08:05;;;;;;;6.00;1.75;;;24.90;67.00;;;;;;5073994;28;20024;-61
2021/03/05 00:10:35;;;;;;;8.95;2.08;;;24.90;67.10;;;;;;5074441;28;20032;-58
2021/03/05 00:13:03;;;;;;;5.43;1.70;;;24.90;67.20;;;;;;5074604;28;20050;-55
2021/03/05 00:15:39;;;;;;;5.75;1.85;;;24.90;67.30;;;;;;5073756;28;20483;-64
2021/03/05 00:18:07;;;;;;;9.50;2.17;;;24.90;67.30;;;;;;5072527;28;20102;-57
2021/03/05 00:20:37;;;;;;;6.18;2.55;;;25.00;67.40;;;;;;5074096;28;20554;-59
2021/03/05 00:23:05;;;;;;;4.63;1.70;;;25.00;67.00;;;;;;5074280;28;20368;-55
2021/03/05 00:25:32;;;;;;;5.78;1.50;;;25.00;67.30;;;;;;5074278;28;20032;-51
2021/03/05 00:28:00;;;;;;;6.03;1.92;;;25.10;67.20;;;;;;5073560;28;20032;-57
2021/03/05 00:30:28;;;;;;;6.85;2.17;;;25.00;66.70;;;;;;5073835;28;20474;-55
2021/03/05 00:32:56;;;;;;;6.15;1.85;;;25.10;66.40;;;;;;5071861;28;20074;-60
2021/03/05 00:35:23;;;;;;;6.82;2.05;;;25.10;66.60;;;;;;5074157;28;20033;-55
2021/03/05 00:37:51;;;;;;;7.50;2.08;;;25.10;66.40;;;;;;5073209;28;20169;-64
2021/03/05 00:40:21;;;;;;;6.95;2.10;;;25.10;66.70;;;;;;5073747;28;20031;-55
2021/03/05 00:42:49;;;;;;;7.85;2.35;;;25.10;66.50;;;;;;5073626;28;20021;-63
2021/03/05 00:45:20;;;;;;;4.45;2.17;;;25.10;66.80;;;;;;5073522;28;20021;-52
2021/03/05 00:47:47;;;;;;;5.88;1.75;;;25.10;67.00;;;;;;5073796;28;20032;-51
2021/03/05 00:50:17;;;;;;;7.20;2.70;;;25.10;66.80;;;;;;5074046;28;20027;-62
2021/03/05 00:52:45;;;;;;;5.57;1.83;;;25.10;66.90;;;;;;5074059;28;20070;-58
2021/03/05 00:55:13;;;;;;;5.57;2.10;;;25.00;67.00;;;;;;5073517;28;20025;-60
2021/03/05 00:57:40;;;;;;;5.82;2.13;;;25.00;67.00;;;;;;5073599;28;20485;-62
2021/03/05 01:00:16;;;;;;;4.70;1.60;;;25.00;66.80;;;;;;5073179;28;20028;-58
2021/03/05 01:02:44;;;;;;;5.75;1.77;;;25.00;67.10;;;;;;5073810;28;20381;-54
2021/03/05 01:05:12;;;;;;;7.85;2.15;;;25.00;67.00;;;;;;5073537;28;20471;-57
2021/03/05 01:07:39;;;;;;;4.65;1.75;;;25.00;67.40;;;;;;5073248;28;20165;-63
2021/03/05 01:10:08;;;;;;;7.97;1.92;;;25.00;67.30;;;;;;5073388;28;20071;-56
2021/03/05 01:12:36;;;;;;;9.07;2.13;;;25.00;66.50;;;;;;5073163;28;20029;-55
2021/03/05 01:15:06;;;;;;;7.63;2.22;;;25.00;66.30;;;;;;5055227;28;20108;-57
2021/03/05 01:17:34;;;;;;;4.95;1.80;;;25.10;66.80;;;;;;5073058;28;20021;-56
2021/03/05 01:20:01;;;;;;;7.30;2.15;;;25.00;67.20;;;;;;5072936;28;20409;-53
2021/03/05 01:22:29;;;;;;;4.95;1.73;;;25.10;67.10;;;;;;5073217;28;20023;-54
2021/03/05 01:24:56;;;;;;;9.88;2.03;;;25.10;67.00;;;;;;5072984;28;20028;-65
2021/03/05 01:27:24;;;;;;;5.50;1.90;;;25.20;66.90;;;;;;5072920;28;20360;-63
2021/03/05 01:29:51;;;;;;;11.18;3.83;;;25.20;67.40;;;;;;5073215;28;20025;-51
2021/03/05 01:32:18;;;;;;;9.30;2.90;;;25.20;66.50;;;;;;5072700;28;20470;-53
2021/03/05 01:34:46;;;;;;;6.35;2.10;;;25.30;66.10;;;;;;5072848;28;20032;-58
2021/03/05 01:37:13;;;;;;;6.93;2.08;;;25.30;66.50;;;;;;5073274;28;20078;-53
2021/03/05 01:39:40;;;;;;;6.07;2.10;;;25.40;65.00;;;;;;5072838;28;20024;-52
2021/03/05 01:42:08;;;;;;;11.98;2.80;;;25.40;64.70;;;;;;5072947;28;20039;-54
2021/03/05 01:44:36;;;;;;;8.02;2.30;;;25.40;65.30;;;;;;5072391;28;20060;-57
2021/03/05 01:47:04;;;;;;;9.52;2.08;;;25.50;65.30;;;;;;5069047;28;20051;-55
2021/03/05 01:49:32;;;;;;;10.23;2.15;;;25.50;66.10;;;;;;5072309;28;20020;-51
2021/03/05 01:51:59;;;;;;;8.73;2.72;;;25.50;64.50;;;;;;5072188;28;20024;-54
2021/03/05 01:54:26;;;;;;;7.63;2.40;;;25.60;64.50;;;;;;5072591;28;20402;-57
2021/03/05 01:56:54;;;;;;;4.82;2.05;;;25.60;65.60;;;;;;5072351;28;20028;-52
2021/03/05 01:59:33;;;;;;;7.38;2.25;;;25.60;65.80;;;;;;5072039;28;20021;-52
2021/03/05 02:02:07;;;;;;;8.23;2.47;;;25.60;65.10;;;;;;5071016;28;20040;-49
2021/03/05 02:04:38;;;;;;;9.43;2.50;;;25.70;64.50;;;;;;5072143;28;20048;-50
2021/03/05 02:07:07;;;;;;;9.80;2.50;;;25.70;65.00;;;;;;5072272;28;20036;-52
2021/03/05 02:09:36;;;;;;;6.35;2.05;;;25.70;65.20;;;;;;5072403;28;20056;-54
2021/03/05 02:12:04;;;;;;;7.80;2.63;;;25.70;65.60;;;;;;5071992;28;20372;-59
2021/03/05 02:14:33;;;;;;;5.60;2.08;;;25.70;64.10;;;;;;5072251;28;20032;-56
2021/03/05 02:17:24;;;;;;;6.40;2.50;;;25.70;65.60;;;;;;5071988;28;20029;-53
2021/03/05 02:20:24;;;;;;;6.30;2.15;;;25.70;64.90;;;;;;5071198;28;20075;-57
2021/03/05 02:23:12;;;;;;;7.82;2.28;;;25.80;64.70;;;;;;5072283;28;20036;-53
2021/03/05 02:25:51;;;;;;;9.20;2.58;;;25.80;62.30;;;;;;5071800;28;20113;-55
2021/03/05 02:28:58;;;;;;;13.32;2.70;;;25.80;64.60;;;;;;5071487;28;20051;-55
2021/03/05 02:31:41;;;;;;;8.95;2.70;;;25.90;64.60;;;;;;5072276;28;20028;-52
2021/03/05 02:34:33;;;;;;;10.63;2.60;;;25.90;63.20;;;;;;5072398;28;20036;-58
2021/03/05 02:37:12;;;;;;;7.65;2.50;;;25.90;64.20;;;;;;5066147;28;20505;-61
2021/03/05 02:40:10;;;;;;;8.90;2.17;;;25.90;65.60;;;;;;5072055;28;20028;-61
2021/03/05 02:42:58;;;;;;;8.32;2.53;;;25.90;64.00;;;;;;5063134;28;20028;-54
2021/03/05 02:45:33;;;;;;;8.00;1.83;;;26.00;64.80;;;;;;5071436;28;20060;-64
2021/03/05 02:48:20;;;;;;;10.10;2.92;;;25.90;64.30;;;;;;5071710;28;20017;-62
2021/03/05 02:50:52;;;;;;;7.70;2.00;;;26.00;63.60;;;;;;5071567;28;20073;-64
2021/03/05 02:53:23;;;;;;;8.90;2.65;;;26.00;64.50;;;;;;5071825;28;20035;-60
2021/03/05 02:55:58;;;;;;;5.70;2.35;;;26.00;64.80;;;;;;5071325;28;20031;-57
2021/03/05 02:58:27;;;;;;;8.48;2.50;;;26.00;63.40;;;;;;5071447;28;20035;-53
2021/03/05 03:00:56;;;;;;;10.38;2.70;;;26.00;63.90;;;;;;5069394;28;20359;-59
2021/03/05 03:03:24;;;;;;;9.15;3.03;;;26.00;62.90;;;;;;5071499;28;20028;-51
2021/03/05 03:05:53;;;;;;;8.43;3.30;;;26.10;63.40;;;;;;5071031;28;20503;-64
2021/03/05 03:08:23;;;;;;;7.47;2.27;;;26.10;63.10;;;;;;5071375;28;20147;-51
2021/03/05 03:10:52;;;;;;;9.50;2.67;;;26.10;64.00;;;;;;5071324;28;20253;-60
2021/03/05 03:13:19;;;;;;;7.43;2.08;;;26.10;63.60;;;;;;5071134;28;20031;-57
2021/03/05 03:15:48;;;;;;;8.02;2.35;;;26.10;63.10;;;;;;5070834;28;20020;-60
2021/03/05 03:18:16;;;;;;;7.03;2.40;;;26.10;64.70;;;;;;5069986;28;20048;-52
2021/03/05 03:20:44;;;;;;;10.88;2.95;;;26.10;64.60;;;;;;5070616;28;20052;-49
2021/03/05 03:23:12;;;;;;;10.18;2.80;;;26.10;63.90;;;;;;5071091;28;20394;-57
2021/03/05 03:25:39;;;;;;;9.13;2.53;;;26.10;63.90;;;;;;5071406;28;20027;-59
2021/03/05 03:28:07;;;;;;;8.65;2.80;;;26.10;62.90;;;;;;5050670;28;20078;-56
2021/03/05 03:30:34;;;;;;;9.43;2.58;;;26.10;64.70;;;;;;5050850;28;20071;-51
2021/03/05 03:33:02;;;;;;;6.78;2.60;;;26.20;63.20;;;;;;5050835;28;20233;-54
2021/03/05 03:35:30;;;;;;;6.80;1.92;;;26.20;63.80;;;;;;5051274;28;20017;-51
2021/03/05 03:37:57;;;;;;;8.48;2.42;;;26.20;63.00;;;;;;5050590;28;20423;-54
2021/03/05 03:40:25;;;;;;;9.57;3.13;;;26.20;62.80;;;;;;5049393;28;20079;-62
2021/03/05 03:42:52;;;;;;;8.88;2.13;;;26.20;63.60;;;;;;5050661;28;20029;-65
2021/03/05 03:45:24;;;;;;;10.73;3.28;;;26.30;62.80;;;;;;5050655;28;20121;-62
2021/03/05 03:47:55;;;;;;;7.38;2.90;;;26.30;62.60;;;;;;5049878;28;20029;-58
2021/03/05 03:50:31;;;;;;;5.95;2.63;;;26.30;62.80;;;;;;5050631;28;20090;-62
2021/03/05 03:53:21;;;;;;;7.10;2.50;;;26.40;64.30;;;;;;5051123;28;20094;-54
2021/03/05 03:55:53;;;;;;;7.35;2.53;;;26.40;61.50;;;;;;5049793;28;20458;-58
2021/03/05 03:58:26;;;;;;;6.85;2.35;;;26.40;63.10;;;;;;5050332;28;20048;-58
2021/03/05 04:00:56;;;;;;;6.97;2.38;;;26.50;63.90;;;;;;5050154;28;20078;-60
2021/03/05 04:03:30;;;;;;;7.25;2.28;;;26.50;61.60;;;;;;5050667;28;20136;-49
2021/03/05 04:05:58;;;;;;;8.40;2.67;;;26.40;63.00;;;;;;5050080;28;20081;-62
2021/03/05 04:08:27;;;;;;;6.38;2.30;;;26.50;62.30;;;;;;5051661;28;20040;-58
2021/03/05 04:10:54;;;;;;;8.15;2.45;;;26.40;62.00;;;;;;5054483;28;20029;-61
2021/03/05 04:13:22;;;;;;;11.27;2.72;;;26.50;62.80;;;;;;5054722;28;20017;-63
2021/03/05 04:15:50;;;;;;;6.38;2.42;;;26.40;63.90;;;;;;5054010;28;20384;-60
2021/03/05 04:18:17;;;;;;;6.38;2.55;;;26.40;62.80;;;;;;5054263;28;20028;-60
2021/03/05 04:20:46;;;;;;;8.35;2.50;;;26.50;62.70;;;;;;5054576;28;20032;-53
2021/03/05 04:23:14;;;;;;;6.72;2.78;;;26.40;63.40;;;;;;5054349;28;20032;-55
2021/03/05 04:25:41;;;;;;;6.40;2.20;;;26.40;63.40;;;;;;5054234;28;20399;-56
2021/03/05 04:28:09;;;;;;;10.05;2.50;;;26.40;62.40;;;;;;5052500;28;20441;-56
2021/03/05 04:30:36;;;;;;;7.90;2.72;;;26.50;62.70;;;;;;5053769;28;20033;-56
2021/03/05 04:33:04;;;;;;;5.95;2.63;;;26.50;61.90;;;;;;5057599;28;20043;-62
2021/03/05 04:35:31;;;;;;;9.38;2.97;;;26.40;61.60;;;;;;5074147;28;20020;-53
2021/03/05 04:37:58;;;;;;;7.82;2.45;;;26.40;61.00;;;;;;5072594;28;20024;-64
2021/03/05 04:40:26;;;;;;;6.15;1.92;;;26.40;61.20;;;;;;5073492;28;20029;-65
2021/03/05 04:42:53;;;;;;;7.03;2.28;;;26.40;62.80;;;;;;5073712;28;20021;-54
2021/03/05 04:45:20;;;;;;;6.10;2.40;;;26.30;63.00;;;;;;5073296;28;20481;-60
2021/03/05 04:47:49;;;;;;;8.88;2.47;;;26.30;62.30;;;;;;5073329;28;20056;-49
2021/03/05 04:50:17;;;;;;;5.35;2.15;;;26.30;62.40;;;;;;5072928;28;20390;-60
2021/03/05 04:52:44;;;;;;;6.13;2.40;;;26.30;63.40;;;;;;5074692;28;20115;-66
2021/03/05 04:55:15;;;;;;;8.48;2.33;;;26.20;62.90;;;;;;5074129;28;20054;-58
2021/03/05 04:57:42;;;;;;;10.50;3.17;;;26.10;63.20;;;;;;5074178;28;20103;-59
2021/03/05 05:00:10;;;;;;;6.70;2.55;;;26.10;64.70;;;;;;5071648;28;20036;-62
2021/03/05 05:02:37;;;;;;;7.53;2.47;;;26.00;65.20;;;;;;5073282;28;20025;-52
2021/03/05 05:05:05;;;;;;;10.43;2.63;;;25.90;64.40;;;;;;5072912;28;20080;-59
2021/03/05 05:07:33;;;;;;;5.45;2.35;;;25.90;64.30;;;;;;5072996;28;20032;-58
2021/03/05 05:10:00;;;;;;;6.18;2.58;;;25.90;64.90;;;;;;5073195;28;20065;-52
2021/03/05 05:12:27;;;;;;;7.78;2.92;;;25.80;63.80;;;;;;5073304;28;20135;-60
2021/03/05 05:14:55;;;;;;;9.02;2.60;;;25.80;64.30;;;;;;5073246;28;20024;-57
2021/03/05 05:17:22;;;;;;;10.25;3.05;;;25.80;65.40;;;;;;5073639;28;20103;-60
2021/03/05 05:19:49;;;;;;;9.05;2.60;;;25.80;64.80;;;;;;5073141;28;20562;-57
2021/03/05 05:22:17;;;;;;;8.02;2.67;;;25.80;65.00;;;;;;5073112;28;20039;-54
2021/03/05 05:24:44;;;;;;;7.40;2.65;;;25.70;63.90;;;;;;5073202;28;20043;-56
2021/03/05 05:27:11;;;;;;;9.70;2.72;;;25.70;64.50;;;;;;5072894;28;20029;-60
2021/03/05 05:29:39;;;;;;;7.05;2.42;;;25.70;65.50;;;;;;5072522;28;20033;-58
2021/03/05 05:32:06;;;;;;;6.63;2.53;;;25.70;65.00;;;;;;5072304;28;20170;-60
2021/03/05 05:34:34;;;;;;;6.50;2.20;;;25.70;65.00;;;;;;5072764;28;20043;-50
2021/03/05 05:37:01;;;;;;;6.82;2.67;;;25.80;64.40;;;;;;5072732;28;20369;-61
2021/03/05 05:39:28;;;;;;;3.97;1.92;;;25.80;66.10;;;;;;5072631;28;20060;-54
2021/03/05 05:41:56;;;;;;;7.28;2.60;;;25.70;64.50;;;;;;5071888;28;20033;-52
2021/03/05 05:44:23;;;;;;;6.68;2.45;;;25.70;64.50;;;;;;5072579;28;20410;-53
2021/03/05 05:46:52;;;;;;;6.30;2.20;;;25.70;64.70;;;;;;5072244;28;20041;-50
2021/03/05 05:49:20;;;;;;;9.70;3.20;;;25.70;64.80;;;;;;5072163;28;20021;-56
2021/03/05 05:51:49;;;;;;;6.43;2.30;;;25.70;64.60;;;;;;5072021;28;20490;-60
2021/03/05 05:54:24;;;;;;;6.78;2.22;;;25.60;65.80;;;;;;5072464;28;20025;-55
2021/03/05 05:56:55;;;;;;;9.90;3.03;;;25.60;65.90;;;;;;5072820;28;20096;-56
2021/03/05 05:59:25;;;;;;;5.88;2.40;;;25.60;66.10;;;;;;5072541;28;20028;-60
2021/03/05 06:01:55;;;;;;;7.10;2.38;;;25.60;64.50;;;;;;5070252;28;20123;-49
2021/03/05 06:04:23;;;;;;;7.15;2.85;;;25.50;65.90;;;;;;5071773;28;20135;-49
2021/03/05 06:06:50;;;;;;;6.63;2.33;;;25.50;65.60;;;;;;5072470;28;20048;-54
2021/03/05 06:09:18;;;;;;;6.25;2.45;;;25.50;65.80;;;;;;5072105;28;20385;-54
2021/03/05 06:11:45;;;;;;;9.70;2.33;;;25.50;65.60;;;;;;5071884;28;20121;-50
2021/03/05 06:14:13;;;;;;;6.30;2.53;;;25.50;64.40;;;;;;5071121;28;20445;-50
2021/03/05 06:16:57;;;;;;;7.25;2.85;;;25.50;65.50;;;;;;5071824;28;20025;-51
2021/03/05 06:19:27;;;;;;;5.95;2.10;;;25.50;65.10;;;;;;5072269;28;20419;-51
2021/03/05 06:21:55;;;;;;;9.02;3.05;;;25.50;64.40;;;;;;5071811;28;20118;-47
2021/03/05 06:24:22;;;;;;;6.57;2.33;;;25.50;64.70;;;;;;5071728;28;20016;-47
2021/03/05 06:27:01;;;;;;;8.60;2.35;;;25.50;64.40;;;;;;5071858;28;20044;-56
2021/03/05 06:29:29;;;;;;;9.05;2.88;;;25.50;64.10;;;;;;5071720;28;20017;-58
2021/03/05 06:31:56;;;;;;;6.05;2.30;;;25.40;64.40;;;;;;5070866;28;20479;-63
2021/03/05 06:34:24;;;;;;;6.70;2.60;;;25.40;65.80;;;;;;5072036;28;20450;-59
2021/03/05 06:37:08;;;;;;;5.43;2.25;;;25.40;66.40;;;;;;5071883;28;20386;-55
2021/03/05 06:39:36;;;;;;;7.63;2.65;;;25.30;66.50;;;;;;5071890;28;20029;-56
2021/03/05 06:42:12;;;;;;;9.45;3.10;;;25.30;65.40;;;;;;5071078;28;20470;-56
2021/03/05 06:44:42;;;;;;;5.35;2.35;;;25.30;64.10;;;;;;5071568;28;20046;-66
2021/03/05 06:47:16;;;;;;;7.38;2.42;;;25.20;66.10;;;;;;5071304;28;20065;-58
2021/03/05 06:49:46;;;;;;;5.13;1.95;;;25.20;65.50;;;;;;5071337;28;20025;-57
2021/03/05 06:52:18;;;;;;;6.35;1.95;;;25.20;65.00;;;;;;5071666;28;20031;-64
2021/03/05 06:54:45;;;;;;;;;;;25.20;67.00;;;;;;5070791;28;20048;-61
2021/03/05 06:57:14;;;;;;;6.20;2.05;;;25.20;65.50;;;;;;5071841;28;19911;-57
2021/03/05 06:59:44;;;;;;;7.05;2.45;;;25.20;66.00;;;;;;5071226;28;20033;-54
2021/03/05 07:02:16;;;;;;;8.02;2.55;;;25.10;65.50;;;;;;5070150;28;20029;-54
2021/03/05 07:04:43;;;;;;;;;;;25.10;66.40;;;;;;5071358;28;20502;-61
2021/03/05 07:07:12;;;;;;;5.63;2.15;;;25.10;66.50;;;;;;5070268;28;19908;-59
2021/03/05 07:09:45;;;;;;;5.05;1.95;;;25.10;66.10;;;;;;5071770;28;20064;-50
2021/03/05 07:12:14;;;;;;;3.85;1.70;;;25.00;66.10;;;;;;5071687;28;20024;-64
2021/03/05 07:14:43;;;;;;;4.10;1.95;;;25.00;66.30;;;;;;5071473;28;20035;-60
2021/03/05 07:17:12;;;;;;;5.50;2.30;;;25.00;65.90;;;;;;5071824;28;20107;-59
2021/03/05 07:19:40;;;;;;;4.60;2.05;;;25.00;66.10;;;;;;5071286;28;20032;-56
2021/03/05 07:22:09;;;;;;;11.98;2.50;;;24.90;66.30;;;;;;5071262;28;20024;-63
2021/03/05 07:24:38;;;;;;;5.75;2.17;;;24.90;66.40;;;;;;5070900;28;20386;-58
2021/03/05 07:27:08;;;;;;;6.57;2.45;;;24.90;66.50;;;;;;5070778;28;20044;-62
2021/03/05 07:29:46;;;;;;;7.97;2.40;;;24.90;66.70;;;;;;5070616;28;20094;-61
2021/03/05 07:32:18;;;;;;;6.65;2.30;;;24.90;66.30;;;;;;5071075;28;20048;-66
2021/03/05 07:35:01;;;;;;;6.63;2.30;;;24.90;67.10;;;;;;5071119;28;20089;-67
2021/03/05 07:37:42;;;;;;;6.85;2.30;;;24.80;67.20;;;;;;5071916;28;20028;-54
2021/03/05 07:40:14;;;;;;;6.68;2.58;;;24.80;67.00;;;;;;5070936;28;20029;-56
2021/03/05 07:42:41;;;;;;;;;;;24.80;67.50;;;;;;5073611;28;20025;-56
2021/03/05 07:45:10;;;;;;;6.10;2.25;;;24.80;67.40;;;;;;5074856;28;19931;-60
2021/03/05 07:47:40;;;;;;;5.93;2.22;;;24.70;67.40;;;;;;5072531;28;20038;-58
2021/03/05 07:50:09;;;;;;;7.47;2.50;;;24.70;67.90;;;;;;5074680;28;20046;-60
2021/03/05 07:52:38;;;;;;;4.50;2.05;;;24.70;67.90;;;;;;5075030;28;20074;-52
2021/03/05 07:55:07;;;;;;;5.85;2.10;;;24.70;68.10;;;;;;5073411;28;20028;-53
2021/03/05 07:57:34;;;;;;;6.00;2.20;;;24.70;68.00;;;;;;5075511;28;20017;-57
2021/03/05 08:00:02;;;;;;;5.28;1.90;;;24.70;67.90;;;;;;5075019;28;20160;-55
2021/03/05 08:02:52;;;;;;;5.93;2.58;;;24.60;67.60;;;;;;5075436;28;20051;-60
2021/03/05 08:05:42;;;;;;;7.85;2.53;;;24.60;67.90;;;;;;5074791;28;20460;-54
2021/03/05 08:08:16;;;;;;;7.20;2.45;;;24.60;67.40;;;;;;5075338;28;20115;-61
2021/03/05 08:10:55;;;;;;;6.25;2.33;;;24.50;67.50;;;;;;5074936;28;20032;-64
2021/03/05 08:13:55;;;;;;;5.38;2.15;;;24.50;67.80;;;;;;5074805;28;20032;-53
2021/03/05 08:16:31;;;;;;;4.13;2.13;;;24.50;67.50;;;;;;5074909;28;20021;-59
2021/03/05 08:19:08;;;;;;;6.82;2.15;;;24.50;68.20;;;;;;5074806;28;20104;-54
2021/03/05 08:21:55;;;;;;;6.22;2.13;;;24.50;67.60;;;;;;5074759;28;20386;-64
2021/03/05 08:24:27;;;;;;;5.30;2.35;;;24.50;67.50;;;;;;5074498;28;20097;-61
2021/03/05 08:27:05;;;;;;;4.57;2.25;;;24.40;67.60;;;;;;5075376;28;20112;-58
2021/03/05 08:29:50;;;;;;;6.70;2.08;;;24.40;67.60;;;;;;5075021;28;20548;-54
2021/03/05 08:35:00;;;;;;;5.72;2.20;;;24.40;67.60;;;;;;5074877;28;20032;-61
2021/03/05 08:37:53;;;;;;;5.35;2.33;;;24.40;67.70;;;;;;5073759;28;20047;-61
2021/03/05 08:40:24;;;;;;;5.18;2.05;;;24.30;67.70;;;;;;5074860;28;20036;-63
2021/03/05 08:42:57;;;;;;;4.40;1.77;;;24.40;68.10;;;;;;5074312;28;20036;-62
2021/03/05 08:45:31;;;;;;;6.80;2.72;;;24.30;67.90;;;;;;5073461;28;20470;-58
2021/03/05 08:48:01;;;;;;;6.47;2.63;;;24.30;67.70;;;;;;5074006;28;20032;-60
2021/03/05 08:50:34;;;;;;;8.80;2.65;;;24.30;67.80;;;;;;5073831;28;20118;-59
2021/03/05 08:53:12;;;;;;;8.73;2.70;;;24.30;68.20;;;;;;5073913;28;20017;-58
2021/03/05 08:55:41;;;;;;;6.93;2.15;;;24.30;67.90;;;;;;5071720;28;20024;-53
2021/03/05 08:58:09;;;;;;;7.75;2.22;;;24.30;68.00;;;;;;5074080;28;20032;-63
2021/03/05 09:00:37;;;;;;;6.00;2.05;;;24.20;68.10;;;;;;5072283;28;20159;-64
2021/03/05 09:03:08;;;;;;;4.05;1.70;;;24.30;68.00;;;;;;5072691;28;20024;-58
2021/03/05 09:05:40;;;;;;;6.53;2.33;;;24.20;68.30;;;;;;5070403;28;20394;-56
2021/03/05 09:08:09;;;;;;;5.28;2.10;;;24.20;68.30;;;;;;5073230;28;20478;-62
2021/03/05 09:10:48;;;;;;;5.95;2.53;;;24.20;68.40;;;;;;5073136;28;20428;-51
2021/03/05 09:13:21;;;;;;;7.60;2.58;;;24.20;68.00;;;;;;5069913;28;20024;-61
2021/03/05 09:15:51;;;;;;;5.95;1.90;;;24.20;68.40;;;;;;5071650;28;20025;-55
2021/03/05 09:18:26;;;;;;;7.50;2.08;;;24.10;68.20;;;;;;5070632;28;20021;-55
2021/03/05 09:20:55;;;;;;;7.10;2.00;;;24.10;68.30;;;;;;5072164;28;20028;-55
2021/03/05 09:23:31;;;;;;;5.53;1.98;;;24.10;68.40;;;;;;5072490;28;20013;-59
2021/03/05 09:26:09;;;;;;;4.85;1.95;;;24.10;68.20;;;;;;5069262;28;20135;-58
2021/03/05 09:28:45;;;;;;;6.47;2.22;;;24.10;68.30;;;;;;5069094;28;20016;-62
2021/03/05 09:31:15;;;;;;;5.70;2.45;;;24.10;68.20;;;;;;5070606;28;20046;-54
2021/03/05 09:33:45;;;;;;;7.72;2.30;;;24.10;68.30;;;;;;5072586;28;20028;-51
2021/03/05 09:36:18;;;;;;;4.53;2.42;;;24.10;68.60;;;;;;5072344;28;20540;-62
2021/03/05 09:38:52;;;;;;;5.50;1.88;;;24.10;68.60;;;;;;5072572;28;20016;-55
2021/03/05 09:41:22;;;;;;;5.97;2.35;;;24.10;68.70;;;;;;5070560;28;20043;-54
2021/03/05 09:44:04;;;;;;;5.88;2.28;;;24.10;68.90;;;;;;5072651;28;20086;-56
2021/03/05 09:46:32;;;;;;;;;;;24.10;68.60;;;;;;5072995;28;20040;-57
2021/03/05 09:49:19;;;;;;;7.95;2.33;;;24.00;68.20;;;;;;5071705;28;19904;-59
2021/03/05 09:51:47;;;;;;;7.38;2.63;;;24.00;68.90;;;;;;5071548;28;20024;-60
2021/03/05 09:54:14;;;;;;;8.30;2.50;;;24.00;68.90;;;;;;5072138;28;20021;-56
2021/03/05 09:56:44;;;;;;;4.72;1.85;;;24.00;68.80;;;;;;5072373;28;20475;-55
2021/03/05 09:59:12;;;;;;;6.47;2.58;;;24.00;69.00;;;;;;5071945;28;20028;-59
2021/03/05 10:01:42;;;;;;;6.95;2.03;;;24.00;68.80;;;;;;5072130;28;20020;-52
2021/03/05 10:04:13;;;;;;;5.00;2.15;;;24.00;68.90;;;;;;5072681;28;20700;-61
2021/03/05 10:06:41;;;;;;;5.93;2.10;;;24.10;69.20;;;;;;5070408;28;20033;-63
2021/03/05 10:09:15;;;;;;;9.23;2.08;;;24.00;68.80;;;;;;5072445;28;20382;-61
2021/03/05 10:11:45;;;;;;;5.45;2.00;;;24.00;68.80;;;;;;5072518;28;20036;-62
2021/03/05 10:14:35;;;;;;;7.65;2.47;;;24.00;68.70;;;;;;5071493;28;20036;-61
2021/03/05 10:17:13;;;;;;;7.25;3.05;;;23.90;68.70;;;;;;5072313;28;20033;-60
2021/03/05 10:19:42;;;;;;;6.80;2.30;;;24.00;68.90;;;;;;5072617;28;20086;-50
2021/03/05 10:22:11;;;;;;;5.68;2.25;;;23.90;68.90;;;;;;5072502;28;20036;-49
2021/03/05 10:24:40;;;;;;;5.85;2.40;;;23.90;68.70;;;;;;5072493;28;20024;-55
2021/03/05 10:27:21;;;;;;;7.47;2.83;;;23.90;68.70;;;;;;5072142;28;20036;-60
2021/03/05 10:29:49;;;;;;;6.53;2.42;;;23.90;68.50;;;;;;5072729;28;20490;-51
2021/03/05 10:32:22;;;;;;;8.43;2.97;;;23.90;68.60;;;;;;5072685;28;20029;-58
2021/03/05 10:34:52;;;;;;;5.93;1.80;;;23.90;68.50;;;;;;5072206;28;20331;-57
2021/03/05 10:37:21;;;;;;;7.85;2.40;;;23.90;68.60;;;;;;5072025;28;20031;-56
2021/03/05 10:39:50;;;;;;;8.25;2.40;;;23.90;68.50;;;;;;5072139;28;20020;-50
2021/03/05 10:42:19;;;;;;;5.85;2.20;;;23.90;68.50;;;;;;5071883;28;20099;-51
2021/03/05 10:44:48;;;;;;;6.85;2.30;;;23.90;68.60;;;;;;5072815;28;20036;-53
2021/03/05 10:47:18;;;;;;;5.80;2.58;;;23.80;68.60;;;;;;5069199;28;20028;-66
2021/03/05 10:49:48;;;;;;;8.05;2.65;;;23.90;68.50;;;;;;5072203;28;20489;-60
2021/03/05 10:52:18;;;;;;;6.53;2.22;;;23.80;68.40;;;;;;5072551;28;20028;-55
2021/03/05 10:54:46;;;;;;;7.07;2.28;;;23.80;68.50;;;;;;5072257;28;20025;-62
2021/03/05 10:57:15;;;;;;;4.90;1.92;;;23.80;68.40;;;;;;5071601;28;20460;-57
2021/03/05 10:59:44;;;;;;;8.88;2.35;;;23.80;68.50;;;;;;5071847;28;20028;-54
2021/03/05 11:02:12;;;;;;;8.85;2.20;;;23.80;68.40;;;;;;5070778;28;20067;-56
2021/03/05 11:04:40;;;;;;;7.72;2.50;;;23.80;68.40;;;;;;5071714;28;20363;-56
2021/03/05 11:07:07;;;;;;;4.93;1.70;;;23.80;68.60;;;;;;5071496;28;20036;-62
2021/03/05 11:09:35;;;;;;;7.40;2.20;;;23.80;68.50;;;;;;5072387;28;20023;-56
2021/03/05 11:12:02;;;;;;;9.02;2.03;;;23.80;68.40;;;;;;5071778;28;20507;-64
2021/03/05 11:14:30;;;;;;;4.30;1.98;;;23.70;68.60;;;;;;5072564;28;20375;-58
2021/03/05 11:16:58;;;;;;;6.40;2.53;;;23.70;68.50;;;;;;5071499;28;20047;-52
2021/03/05 11:19:29;;;;;;;6.90;2.65;;;23.70;68.50;;;;;;5072107;28;20036;-58
2021/03/05 11:21:56;;;;;;;6.82;2.35;;;23.70;68.50;;;;;;5071632;28;20017;-62
2021/03/05 11:24:24;;;;;;;5.78;2.25;;;23.70;69.00;;;;;;5071964;28;20024;-56
2021/03/05 11:26:51;;;;;;;7.38;2.67;;;23.70;68.60;;;;;;5069462;28;20067;-58
2021/03/05 11:29:19;;;;;;;4.05;1.75;;;23.70;68.60;;;;;;5071390;28;20032;-63
2021/03/05 11:31:46;;;;;;;5.68;1.92;;;23.70;68.50;;;;;;5071365;28;20029;-54
2021/03/05 11:34:13;;;;;;;7.13;2.50;;;23.70;68.50;;;;;;5071485;28;20016;-50
2021/03/05 11:36:42;;;;;;;6.28;2.50;;;23.70;68.50;;;;;;5070244;28;20056;-53
2021/03/05 11:39:10;;;;;;;6.78;2.08;;;23.70;68.40;;;;;;5071009;28;20109;-60
2021/03/05 11:41:37;;;;;;;5.95;2.60;;;23.70;68.50;;;;;;5071306;28;20062;-59
2021/03/05 11:44:05;;;;;;;5.50;1.85;;;23.70;68.50;;;;;;5071684;28;20111;-53
2021/03/05 11:46:33;;;;;;;7.45;2.53;;;23.70;68.50;;;;;;5071092;28;20100;-57
2021/03/05 11:49:01;;;;;;;5.22;2.00;;;23.70;68.40;;;;;;5070998;28;20085;-59
2021/03/05 11:51:31;;;;;;;5.13;2.28;;;23.70;68.50;;;;;;5071453;28;20387;-63
2021/03/05 11:53:58;;;;;;;5.88;2.30;;;23.70;68.50;;;;;;5071455;28;20047;-65
2021/03/05 11:56:27;;;;;;;9.60;2.90;;;23.60;68.50;;;;;;5071395;28;20117;-57
2021/03/05 11:58:54;;;;;;;5.78;2.42;;;23.60;68.50;;;;;;5070693;28;20107;-53
2021/03/05 12:01:21;;;;;;;8.90;2.38;;;23.70;68.40;;;;;;5071482;28;20020;-60
2021/03/05 12:03:49;;;;;;;6.20;2.05;;;23.60;68.40;;;;;;5069557;28;20017;-57
2021/03/05 12:06:19;;;;;;;6.30;2.15;;;23.60;68.40;;;;;;5071065;28;20112;-64
2021/03/05 12:08:46;;;;;;;4.72;2.00;;;23.60;68.40;;;;;;5070685;28;20021;-61
2021/03/05 12:11:14;;;;;;;5.85;2.17;;;23.60;68.20;;;;;;5071185;28;20032;-53
2021/03/05 12:13:41;;;;;;;5.28;2.20;;;23.60;68.40;;;;;;5071185;28;20021;-50
2021/03/05 12:16:09;;;;;;;6.50;2.33;;;23.60;68.40;;;;;;5071198;28;20047;-62
2021/03/05 12:18:36;;;;;;;6.13;1.85;;;23.60;68.40;;;;;;5071015;28;20082;-60
2021/03/05 12:21:04;;;;;;;10.32;2.55;;;23.60;68.40;;;;;;5070989;28;20025;-62
2021/03/05 12:23:32;;;;;;;8.25;1.85;;;23.60;68.40;;;;;;5069843;28;20020;-55
2021/03/05 12:25:59;;;;;;;7.97;2.25;;;23.60;68.30;;;;;;5070847;28;20497;-51
2021/03/05 12:28:26;;;;;;;9.30;2.80;;;23.60;68.30;;;;;;5070762;28;20037;-55
2021/03/05 12:30:54;;;;;;;4.47;2.20;;;23.50;68.20;;;;;;5074482;28;20232;-51
2021/03/05 12:33:21;;;;;;;9.30;2.70;;;23.60;68.30;;;;;;5074875;28;20129;-59
2021/03/05 12:35:48;;;;;;;7.70;2.30;;;23.50;68.20;;;;;;5074472;28;20033;-52
2021/03/05 12:38:16;;;;;;;7.03;2.67;;;23.60;68.20;;;;;;5074443;28;20467;-60
2021/03/05 12:40:43;;;;;;;6.68;2.75;;;23.50;68.20;;;;;;5074351;28;20028;-53
2021/03/05 12:43:10;;;;;;;8.73;2.58;;;23.60;68.30;;;;;;5074054;28;20040;-55
2021/03/05 12:45:38;;;;;;;6.50;1.98;;;23.50;68.30;;;;;;5073258;28;20494;-59
2021/03/05 12:48:06;;;;;;;6.15;2.08;;;23.50;68.30;;;;;;5074106;28;20455;-61
2021/03/05 12:50:33;;;;;;;5.47;1.92;;;23.50;68.20;;;;;;5065537;28;20020;-50
2021/03/05 12:53:01;;;;;;;7.25;2.58;;;23.50;68.30;;;;;;5071549;28;20383;-54
2021/03/05 12:55:28;;;;;;;7.80;2.63;;;23.50;68.20;;;;;;5069014;28;20031;-58
2021/03/05 12:57:55;;;;;;;8.82;2.25;;;23.50;68.20;;;;;;5072326;28;21180;-55
2021/03/05 13:00:23;;;;;;;6.75;2.35;;;23.50;68.20;;;;;;5068510;28;20135;-54
2021/03/05 13:02:51;;;;;;;6.38;2.50;;;23.50;68.20;;;;;;5071102;28;20501;-54
2021/03/05 13:05:19;;;;;;;5.18;2.20;;;23.50;68.20;;;;;;5067096;28;20120;-62
2021/03/05 13:07:46;;;;;;;8.77;2.22;;;23.40;68.10;;;;;;5071343;28;20097;-51